KROW/ROW METAR and TAF weather

Enter ICAO airport designator
Station Type Date Time Source
KROW METAR 2020/11/27 02:51 UTC NOAA

KROW 270251Z 33005KT 10SM CLR 12/M05 A2996 RMK AO2 SLP124 T01171050 53013


Station Type Date Time Source
KROW Decoded METAR 2020/11/27 02:51 UTC NOAA

ROSWELL INDUSTRIAL AIR CENTR, NM, United States (KROW) 33-18N 104-32W 1112M
Nov 26, 2020 - 09:51 PM EST / 2020.11.27 0251 UTC
Wind: from the NNW (330 degrees) at 6 MPH (5 KT):0
Visibility: 10 mile(s):0
Sky conditions: clear
Temperature: 53.1 F (11.7 C)
Dew Point: 23.0 F (-5.0 C)
Relative Humidity: 30%
Pressure (altimeter): 29.96 in. Hg (1014 hPa)
Pressure tendency: 0.04 inches (1.3 hPa) higher than three hours ago
ob: KROW 270251Z 33005KT 10SM CLR 12/M05 A2996 RMK AO2 SLP124 T01171050 53013
cycle: 3

Station Type Date Time Source
KROW TAF 2020/11/26 18:22 UTC NOAA

TAF KROW 261720Z 2618/2718 VRB05KT P6SM SKC
FM270100 36008KT P6SM FEW250
FM271200 36012KT P6SM FEW250

Example: see airport list